Vidéos de vol d’initiation.

METAR :

LFQA 070100Z AUTO 26004KT CAVOK 15/13 Q1024


vue en direct sur l'aérodrome
mentions légales politique de confidentialité
Cochet Concept
cx